Time;durP1;ratioP1;P1;durP2;ratioP2;P2;SDS_P1;SDS_P2;PMS_P1;PMS_P2;Temp;Humidity;BMP_temperature;BMP_pressure;BME280_temperature;BME280_humidity;BME280_pressure;Samples;Min_cycle;Max_cycle;Signal;HPM_P1;HPM_P2
2022/02/09 00:02:10;;;;;;;26.70;15.05;;;8.40;99.90;;;;;;5087281;28;20141;-57
2022/02/09 00:04:45;;;;;;;21.35;14.10;;;8.40;99.90;;;;;;5088449;28;20111;-55
2022/02/09 00:07:18;;;;;;;21.70;13.13;;;8.40;99.90;;;;;;5087076;28;20024;-54
2022/02/09 00:09:45;;;;;;;19.60;13.10;;;8.40;99.90;;;;;;5086394;28;20495;-59
2022/02/09 00:12:24;;;;;;;18.35;13.32;;;8.40;99.90;;;;;;5087399;28;20024;-57
2022/02/09 00:22:31;;;;;;;23.52;15.45;;;8.40;99.90;;;;;;5087335;28;20461;-58
2022/02/09 00:28:03;;;;;;;21.65;14.80;;;8.40;99.90;;;;;;5086540;28;20039;-57
2022/02/09 00:33:37;;;;;;;23.05;14.48;;;8.40;99.90;;;;;;5086910;28;20030;-59
2022/02/09 01:11:28;;;;;;;21.92;15.48;;;8.50;99.90;;;;;;5086651;28;20711;-54
2022/02/09 01:56:40;;;;;;;19.00;15.20;;;8.40;99.90;;;;;;5090045;28;20057;-56
2022/02/09 01:59:05;;;;;;;20.55;15.60;;;8.40;99.90;;;;;;5088881;28;20048;-57
2022/02/09 02:01:31;;;;;;;18.25;14.65;;;8.40;99.90;;;;;;5087767;28;20089;-55
2022/02/09 02:03:57;;;;;;;19.13;14.88;;;8.40;99.90;;;;;;5068562;28;20571;-57
2022/02/09 02:06:23;;;;;;;17.35;13.50;;;8.40;99.90;;;;;;5089789;28;20056;-59
2022/02/09 02:08:51;;;;;;;19.58;13.95;;;8.40;99.90;;;;;;5055826;28;20047;-56
2022/02/09 02:11:30;;;;;;;17.85;13.95;;;8.40;99.90;;;;;;5089598;28;20024;-56
2022/02/09 02:14:28;;;;;;;18.30;14.05;;;8.40;99.90;;;;;;5089819;28;20050;-57
2022/02/09 02:17:05;;;;;;;17.33;13.27;;;8.40;99.90;;;;;;5075875;28;20062;-58
2022/02/09 03:18:01;;;;;;;11.48;9.73;;;8.30;99.90;;;;;;5088122;28;20038;-58
2022/02/09 03:20:36;;;;;;;11.88;9.45;;;8.30;99.90;;;;;;5074461;28;20051;-54
2022/02/09 03:42:22;;;;;;;13.27;9.90;;;8.30;99.90;;;;;;5087518;28;20513;-58
2022/02/09 03:47:39;;;;;;;17.67;12.40;;;8.20;99.90;;;;;;5087866;28;20028;-50
2022/02/09 03:56:24;;;;;;;16.30;11.82;;;8.20;99.90;;;;;;5087569;28;20042;-54
2022/02/09 03:58:15;;;;;;;15.53;12.33;;;8.10;99.90;;;;;;5070704;28;20047;-57
2022/02/09 04:00:42;;;;;;;17.17;12.57;;;8.10;99.90;;;;;;5087870;28;20115;-58
2022/02/09 04:03:13;;;;;;;15.77;12.20;;;8.10;99.90;;;;;;5086507;28;20032;-55
2022/02/09 04:05:39;;;;;;;18.25;12.63;;;8.10;99.90;;;;;;5086678;28;20024;-58
2022/02/09 04:08:08;;;;;;;16.73;12.80;;;8.10;99.90;;;;;;5086861;28;20476;-54
2022/02/09 04:10:39;;;;;;;18.17;12.63;;;8.10;99.90;;;;;;5086543;28;20032;-56
2022/02/09 04:37:17;;;;;;;14.85;12.30;;;8.10;99.90;;;;;;5086015;28;20104;-62
2022/02/09 04:39:50;;;;;;;16.45;11.85;;;8.10;99.90;;;;;;5086903;28;20032;-57
2022/02/09 04:42:40;;;;;;;17.38;13.07;;;8.00;99.90;;;;;;5085640;28;20107;-56
2022/02/09 04:50:38;;;;;;;18.25;13.77;;;8.10;99.90;;;;;;5086162;28;20032;-56
2022/02/09 04:53:22;;;;;;;19.92;12.90;;;8.10;99.90;;;;;;5069417;28;20099;-57
2022/02/09 04:58:35;;;;;;;18.75;14.02;;;8.10;99.90;;;;;;5087595;28;20399;-57
2022/02/09 05:01:10;;;;;;;17.70;14.52;;;8.00;99.90;;;;;;5069638;28;20114;-56
2022/02/09 05:04:07;;;;;;;19.80;15.35;;;8.00;99.90;;;;;;5086905;28;20024;-57
2022/02/09 05:28:11;;;;;;;24.67;15.38;;;8.00;99.90;;;;;;5090265;28;20081;-60
2022/02/09 05:30:37;;;;;;;22.58;15.32;;;8.00;99.90;;;;;;5074679;28;20397;-58
2022/02/09 05:33:04;;;;;;;21.58;14.32;;;8.00;99.90;;;;;;5090174;28;20030;-57
2022/02/09 05:35:29;;;;;;;24.05;15.43;;;7.90;99.90;;;;;;5089445;28;20034;-57
2022/02/09 05:37:57;;;;;;;19.13;14.73;;;7.90;99.90;;;;;;5089379;28;20057;-59
2022/02/09 05:40:23;;;;;;;21.33;15.35;;;7.90;99.90;;;;;;5089869;28;20077;-57
2022/02/09 05:42:49;;;;;;;21.23;14.73;;;7.90;99.90;;;;;;5074466;28;20032;-55
2022/02/09 05:45:16;;;;;;;20.33;14.13;;;7.90;99.90;;;;;;5089091;28;20024;-51
2022/02/09 05:50:34;;;;;;;23.13;14.98;;;7.90;99.90;;;;;;5089812;28;20059;-54
2022/02/09 05:53:07;;;;;;;21.67;16.05;;;7.90;99.90;;;;;;5088993;28;20052;-55
2022/02/09 06:00:55;;;;;;;23.55;15.68;;;7.90;99.90;;;;;;5089585;28;20035;-55
2022/02/09 06:03:20;;;;;;;21.10;15.20;;;7.90;99.90;;;;;;5089952;28;20020;-57
2022/02/09 06:05:47;;;;;;;24.67;14.98;;;7.90;99.90;;;;;;5089320;28;20020;-58
2022/02/09 06:08:13;;;;;;;27.65;15.38;;;7.90;99.90;;;;;;5087846;28;20016;-59
2022/02/09 06:10:40;;;;;;;20.25;14.38;;;7.90;99.90;;;;;;5087817;28;20043;-58
2022/02/09 06:21:09;;;;;;;22.77;14.80;;;7.90;99.90;;;;;;5089212;28;20553;-57
2022/02/09 06:23:35;;;;;;;23.55;14.32;;;7.80;99.90;;;;;;5089257;28;20027;-58
2022/02/09 06:26:04;;;;;;;23.80;15.35;;;7.90;99.90;;;;;;5089414;28;20040;-55
2022/02/09 06:28:30;;;;;;;28.58;16.00;;;7.80;99.90;;;;;;5090163;28;20032;-57
2022/02/09 06:30:57;;;;;;;19.65;14.60;;;7.90;99.90;;;;;;5088330;28;20032;-56
2022/02/09 06:33:23;;;;;;;20.80;14.55;;;7.90;99.90;;;;;;5089611;28;20035;-54
2022/02/09 06:35:49;;;;;;;20.55;16.40;;;7.80;99.90;;;;;;5089387;28;20024;-59
2022/02/09 06:38:17;;;;;;;21.70;16.30;;;7.90;99.90;;;;;;5089400;28;20103;-59
2022/02/09 06:40:44;;;;;;;22.83;15.60;;;7.90;99.90;;;;;;5087556;28;20038;-58
2022/02/09 06:43:11;;;;;;;21.20;17.25;;;7.80;99.90;;;;;;5088876;28;20047;-55
2022/02/09 06:45:39;;;;;;;28.42;17.98;;;7.80;99.90;;;;;;5089381;28;20039;-56
2022/02/09 06:48:19;;;;;;;24.15;16.48;;;7.80;99.90;;;;;;5088522;28;20035;-57
2022/02/09 06:50:53;;;;;;;23.65;17.38;;;7.80;99.90;;;;;;5072475;28;20031;-55
2022/02/09 06:55:54;;;;;;;24.13;17.05;;;7.80;99.90;;;;;;5088673;28;20035;-57
2022/02/09 06:58:41;;;;;;;27.67;17.60;;;7.90;99.90;;;;;;5088993;28;20048;-58
2022/02/09 07:01:07;;;;;;;;;;;7.80;99.90;;;;;;5087285;28;20055;-57
2022/02/09 07:03:33;;;;;;;25.45;16.98;;;7.80;99.90;;;;;;5089164;28;20354;-58
2022/02/09 07:05:59;;;;;;;23.35;16.08;;;7.80;99.90;;;;;;5087764;28;20123;-58
2022/02/09 07:08:24;;;;;;;22.85;16.08;;;7.80;99.90;;;;;;5089493;28;20114;-56
2022/02/09 07:10:50;;;;;;;24.45;17.30;;;7.80;99.90;;;;;;5089797;28;20028;-60
2022/02/09 07:13:18;;;;;;;22.60;17.73;;;7.80;99.90;;;;;;5088346;28;20016;-56
2022/02/09 07:15:48;;;;;;;24.63;18.13;;;7.80;99.90;;;;;;5089040;28;20031;-56
2022/02/09 07:18:15;;;;;;;26.42;17.83;;;7.70;99.90;;;;;;5088480;28;20035;-56
2022/02/09 07:23:30;;;;;;;24.67;17.45;;;7.70;99.90;;;;;;5088384;28;20023;-56
2022/02/09 07:26:19;;;;;;;26.33;17.73;;;7.70;99.90;;;;;;5087645;28;20043;-57
2022/02/09 07:28:45;;;;;;;24.80;16.80;;;7.80;99.90;;;;;;5088672;28;20061;-58
2022/02/09 07:31:12;;;;;;;20.73;16.42;;;7.70;99.90;;;;;;5070874;28;20694;-56
2022/02/09 07:33:42;;;;;;;25.02;16.15;;;7.80;99.90;;;;;;5087696;28;20072;-55
2022/02/09 07:36:08;;;;;;;23.15;16.55;;;7.80;99.90;;;;;;5087250;28;20030;-54
2022/02/09 07:38:35;;;;;;;23.70;16.98;;;7.80;99.90;;;;;;5088922;28;20725;-54
2022/02/09 07:41:01;;;;;;;26.35;17.00;;;7.80;99.90;;;;;;5088012;28;20081;-53
2022/02/09 07:43:48;;;;;;;22.88;16.00;;;7.70;99.90;;;;;;5088268;28;20119;-57
2022/02/09 07:53:59;;;;;;;30.08;16.98;;;7.80;99.90;;;;;;5088006;28;20073;-58
2022/02/09 07:56:25;;;;;;;20.53;14.47;;;7.80;99.90;;;;;;5069943;28;20020;-56
2022/02/09 07:58:51;;;;;;;24.65;16.70;;;7.80;99.90;;;;;;5069520;28;20062;-54
2022/02/09 08:01:17;;;;;;;21.75;15.65;;;7.80;99.90;;;;;;5069411;28;20105;-55
2022/02/09 08:03:42;;;;;;;21.95;16.30;;;7.80;99.90;;;;;;5087449;28;20070;-56
2022/02/09 08:06:08;;;;;;;21.10;16.23;;;7.80;99.90;;;;;;5087692;28;20106;-55
2022/02/09 08:08:35;;;;;;;23.30;16.05;;;7.80;99.90;;;;;;5087814;28;20546;-53
2022/02/09 08:27:34;;;;;;;25.95;15.45;;;7.90;99.90;;;;;;5087231;28;20567;-54
2022/02/09 08:34:56;;;;;;;20.42;14.18;;;7.90;99.90;;;;;;5086287;28;20120;-54
2022/02/09 08:37:22;;;;;;;21.88;13.18;;;8.00;99.90;;;;;;5078346;28;20023;-57
2022/02/09 08:39:49;;;;;;;19.00;14.73;;;8.00;99.90;;;;;;5087857;28;20024;-59
2022/02/09 08:42:15;;;;;;;17.25;13.82;;;8.00;99.90;;;;;;5087786;28;20032;-60
2022/02/09 08:44:41;;;;;;;15.75;12.88;;;8.00;99.90;;;;;;5068547;28;20027;-59
2022/02/09 08:47:07;;;;;;;19.80;12.32;;;8.00;99.90;;;;;;5085757;28;20581;-57
2022/02/09 08:49:33;;;;;;;16.60;12.65;;;8.00;99.90;;;;;;5122545;22;20054;-54
2022/02/09 08:51:59;;;;;;;14.88;11.60;;;8.00;99.90;;;;;;5124267;28;20514;-54
2022/02/09 08:54:26;;;;;;;17.33;11.55;;;8.10;99.90;;;;;;5124329;27;20033;-54
2022/02/09 08:56:55;;;;;;;18.92;11.32;;;8.10;99.90;;;;;;5126529;28;20382;-53
2022/02/09 08:59:26;;;;;;;15.80;11.23;;;8.10;99.90;;;;;;5127973;28;20023;-54
2022/02/09 09:01:58;;;;;;;16.30;10.70;;;8.10;99.90;;;;;;5127056;28;20023;-54
2022/02/09 09:04:30;;;;;;;17.95;11.45;;;8.20;99.90;;;;;;5110667;28;20693;-55
2022/02/09 09:06:57;;;;;;;14.85;10.38;;;8.20;99.90;;;;;;5128736;28;20023;-53
2022/02/09 09:09:40;;;;;;;14.30;10.63;;;8.20;99.90;;;;;;5126992;27;20046;-55
2022/02/09 10:01:18;;;;;;;9.18;8.13;;;8.40;99.90;;;;;;5128145;28;20038;-52
2022/02/09 10:34:13;;;;;;;10.73;8.27;;;8.50;99.90;;;;;;5132352;27;20034;-55
2022/02/09 10:36:52;;;;;;;12.57;8.30;;;8.60;99.90;;;;;;5130492;27;20546;-54
2022/02/09 10:39:31;;;;;;;11.23;7.40;;;8.60;99.90;;;;;;5132030;27;20031;-53
2022/02/09 10:42:30;;;;;;;11.13;8.00;;;8.60;99.90;;;;;;5130687;27;20121;-54
2022/02/09 10:45:05;;;;;;;10.85;7.57;;;8.60;99.90;;;;;;5130440;27;20119;-54
2022/02/09 10:47:35;;;;;;;8.15;6.78;;;8.60;99.90;;;;;;5131756;27;20034;-53
2022/02/09 10:50:27;;;;;;;10.57;7.75;;;8.60;99.90;;;;;;5130659;27;20038;-55
2022/02/09 10:52:55;;;;;;;11.60;7.43;;;8.60;99.90;;;;;;5130162;27;20035;-53
2022/02/09 10:55:42;;;;;;;8.90;7.47;;;8.50;99.90;;;;;;5131285;27;20031;-56
2022/02/09 10:58:16;;;;;;;7.95;7.15;;;8.50;99.90;;;;;;5129528;27;20062;-54
2022/02/09 11:00:43;;;;;;;7.20;6.50;;;8.50;99.90;;;;;;5112825;27;20023;-53
2022/02/09 11:03:16;;;;;;;10.77;6.93;;;8.50;99.90;;;;;;5112538;27;20636;-52
2022/02/09 11:05:46;;;;;;;8.57;7.38;;;8.50;99.90;;;;;;5129795;27;20028;-55
2022/02/09 11:08:12;;;;;;;8.95;6.57;;;8.50;99.90;;;;;;5131265;27;20019;-53
2022/02/09 11:10:38;;;;;;;8.50;6.18;;;8.50;99.90;;;;;;5112556;27;20035;-52
2022/02/09 11:13:09;;;;;;;8.48;6.00;;;8.50;99.90;;;;;;5130892;27;20023;-53
2022/02/09 11:15:37;;;;;;;9.27;6.32;;;8.50;99.90;;;;;;5130298;27;20007;-55
2022/02/09 11:18:04;;;;;;;7.97;6.18;;;8.50;99.90;;;;;;5129409;27;20046;-54
2022/02/09 11:20:31;;;;;;;6.30;5.70;;;8.50;99.90;;;;;;5130229;27;20015;-55
2022/02/09 11:22:57;;;;;;;9.05;5.93;;;8.50;99.90;;;;;;5131030;27;20031;-54
2022/02/09 11:25:31;;;;;;;8.73;6.40;;;8.50;99.90;;;;;;5129884;27;20015;-55
2022/02/09 11:28:41;;;;;;;7.93;7.13;;;8.50;99.90;;;;;;5130670;27;20099;-56
2022/02/09 11:31:16;;;;;;;10.10;6.72;;;8.50;99.90;;;;;;5048154;28;20755;-52
2022/02/09 11:34:02;;;;;;;8.98;6.80;;;8.50;99.90;;;;;;5047745;28;20140;-55
2022/02/09 11:37:03;;;;;;;9.60;6.32;;;8.50;99.90;;;;;;5105818;27;20070;-56
2022/02/09 11:39:41;;;;;;;10.02;6.45;;;8.50;99.90;;;;;;5126817;27;20089;-55
2022/02/09 11:43:06;;;;;;;7.63;6.38;;;8.50;99.90;;;;;;5129148;27;20015;-55
2022/02/09 11:46:03;;;;;;;6.30;5.70;;;8.50;99.90;;;;;;5125800;27;20099;-54
2022/02/09 11:49:17;;;;;;;7.57;5.73;;;8.50;99.90;;;;;;5130541;27;20032;-53
2022/02/09 11:54:47;;;;;;;7.05;5.32;;;8.50;99.90;;;;;;5129257;27;20045;-53
2022/02/09 12:11:25;;;;;;;7.15;5.15;;;8.60;99.90;;;;;;5101828;27;20040;-51
2022/02/09 12:16:42;;;;;;;5.43;4.90;;;8.60;99.90;;;;;;5130577;27;20019;-53
2022/02/09 12:19:12;;;;;;;7.40;5.15;;;8.50;99.90;;;;;;5128751;27;20733;-52
2022/02/09 12:21:45;;;;;;;8.02;4.63;;;8.50;99.90;;;;;;5128914;27;20023;-55
2022/02/09 12:24:28;;;;;;;14.35;4.53;;;8.50;99.90;;;;;;5129144;27;20072;-51
2022/02/09 12:27:00;;;;;;;4.60;4.03;;;8.50;99.90;;;;;;5131775;27;20550;-53
2022/02/09 12:29:57;;;;;;;5.53;4.15;;;8.50;99.90;;;;;;5128902;27;20570;-53
2022/02/09 12:32:26;;;;;;;7.65;4.50;;;8.50;99.90;;;;;;5120716;27;20126;-55
2022/02/09 12:35:08;;;;;;;7.00;4.45;;;8.50;99.90;;;;;;5128388;27;20705;-55
2022/02/09 12:37:40;;;;;;;8.73;4.68;;;8.50;99.90;;;;;;5128549;27;20014;-53
2022/02/09 12:40:12;;;;;;;5.28;4.72;;;8.50;99.90;;;;;;5129154;27;20509;-53
2022/02/09 12:42:41;;;;;;;5.97;4.43;;;8.60;99.90;;;;;;5108401;27;20069;-53
2022/02/09 12:45:12;;;;;;;5.05;4.25;;;8.60;99.90;;;;;;5129640;27;20023;-55
2022/02/09 12:47:43;;;;;;;6.97;4.45;;;8.60;99.90;;;;;;5126836;27;20023;-55
2022/02/09 12:50:14;;;;;;;5.30;3.97;;;8.50;99.90;;;;;;5128043;27;20023;-51
2022/02/09 12:52:42;;;;;;;9.40;4.80;;;8.50;99.90;;;;;;5126590;28;20574;-52
2022/02/09 12:55:12;;;;;;;8.18;4.43;;;8.50;99.90;;;;;;5129773;28;20019;-55
2022/02/09 12:57:42;;;;;;;4.80;4.20;;;8.50;99.90;;;;;;5128681;27;20027;-51
2022/02/09 13:00:23;;;;;;;7.45;4.18;;;8.50;99.90;;;;;;5128838;28;20023;-52
2022/02/09 13:02:49;;;;;;;7.93;4.30;;;8.50;99.90;;;;;;5128391;28;20123;-52
2022/02/09 13:05:15;;;;;;;8.02;4.03;;;8.40;99.90;;;;;;5110187;28;20832;-52
2022/02/09 13:07:40;;;;;;;8.55;4.53;;;8.50;99.90;;;;;;5129422;27;20027;-52
2022/02/09 13:10:08;;;;;;;4.10;3.70;;;8.50;99.90;;;;;;5129635;28;20030;-53
2022/02/09 13:12:40;;;;;;;4.63;3.72;;;8.40;99.90;;;;;;5129028;28;20019;-52
2022/02/09 13:15:22;;;;;;;5.07;4.03;;;8.40;99.90;;;;;;5129321;28;20019;-55
2022/02/09 13:21:05;;;;;;;5.03;3.55;;;8.50;99.90;;;;;;5127911;28;20043;-52
2022/02/09 13:24:05;;;;;;;3.80;3.42;;;8.50;99.90;;;;;;5128228;28;20034;-52
2022/02/09 13:52:19;;;;;;;3.83;3.42;;;8.40;99.90;;;;;;5132957;27;20038;-52
2022/02/09 14:03:39;;;;;;;4.05;3.10;;;8.40;99.90;;;;;;5131642;27;20038;-56
2022/02/09 14:06:54;;;;;;;3.30;3.00;;;8.40;99.90;;;;;;5131638;27;20076;-54
2022/02/09 14:23:50;;;;;;;6.60;3.33;;;8.40;99.90;;;;;;5131839;27;20026;-52
2022/02/09 14:47:06;;;;;;;4.05;3.15;;;8.40;99.90;;;;;;5131140;27;20053;-53
2022/02/09 14:52:18;;;;;;;3.10;2.60;;;8.40;99.90;;;;;;5069715;28;20029;-53
2022/02/09 14:54:50;;;;;;;3.63;2.70;;;8.40;99.90;;;;;;5070478;28;20021;-57
2022/02/09 14:57:23;;;;;;;2.40;2.15;;;8.40;99.90;;;;;;5070673;28;20024;-59
2022/02/09 15:10:43;;;;;;;3.08;2.50;;;8.40;99.90;;;;;;5025370;28;20039;-58
2022/02/09 15:19:11;;;;;;;2.67;2.47;;;8.40;99.90;;;;;;5063218;28;20078;-58
2022/02/09 15:24:17;;;;;;;2.50;2.30;;;8.30;99.90;;;;;;5068708;28;20035;-57
2022/02/09 15:26:45;;;;;;;2.45;2.17;;;8.30;99.90;;;;;;5068684;28;20070;-54
2022/02/09 15:29:15;;;;;;;1.92;1.73;;;8.30;99.90;;;;;;5069286;28;20062;-60
2022/02/09 15:31:47;;;;;;;1.50;1.40;;;8.30;99.90;;;;;;5069285;28;20107;-55
2022/02/09 15:34:27;;;;;;;3.90;1.27;;;8.30;99.90;;;;;;5068381;28;20031;-56
2022/02/09 15:37:04;;;;;;;0.60;0.60;;;8.20;99.90;;;;;;5070113;28;20073;-57
2022/02/09 15:39:35;;;;;;;1.35;0.50;;;8.10;99.90;;;;;;5068461;28;20100;-57
2022/02/09 15:58:58;;;;;;;2.88;2.03;;;7.90;99.90;;;;;;5068541;28;20112;-53
2022/02/09 16:20:00;;;;;;;15.43;4.85;;;7.70;99.90;;;;;;5069334;28;20483;-59
2022/02/09 16:21:52;;;;;;;17.08;5.78;;;7.70;99.90;;;;;;5056547;28;20047;-59
2022/02/09 16:45:52;;;;;;;16.10;3.67;;;7.60;99.90;;;;;;5068631;28;20035;-56
2022/02/09 16:48:18;;;;;;;18.02;5.18;;;7.50;99.90;;;;;;5067098;28;20031;-58
2022/02/09 16:50:49;;;;;;;13.70;4.65;;;7.50;99.90;;;;;;5068542;28;20047;-59
2022/02/09 17:19:44;;;;;;;15.52;4.57;;;7.40;99.90;;;;;;5070922;28;20028;-55
2022/02/09 17:22:11;;;;;;;8.75;5.15;;;7.40;99.90;;;;;;5072467;28;20035;-52
2022/02/09 17:24:38;;;;;;;14.20;5.88;;;7.40;99.90;;;;;;5072489;28;20108;-55
2022/02/09 17:27:07;;;;;;;15.02;4.10;;;7.40;99.90;;;;;;5072420;28;20115;-54
2022/02/09 17:35:03;;;;;;;18.98;4.80;;;7.30;99.90;;;;;;5071629;28;20391;-56
2022/02/09 17:37:50;;;;;;;18.90;5.20;;;7.30;99.90;;;;;;5072446;28;20025;-53
2022/02/09 17:53:23;;;;;;;13.18;4.07;;;7.30;99.90;;;;;;5071748;28;20020;-57
2022/02/09 17:54:23;;;;;;;11.40;3.70;;;7.20;99.90;;;;;;5070814;28;20070;-53
2022/02/09 17:56:51;;;;;;;20.33;3.95;;;7.30;99.90;;;;;;5072001;28;20013;-55
2022/02/09 17:59:22;;;;;;;17.73;4.55;;;7.20;99.90;;;;;;5069048;28;20036;-55
2022/02/09 18:01:48;;;;;;;11.93;3.78;;;7.30;99.90;;;;;;5070477;28;20028;-58
2022/02/09 18:04:16;;;;;;;12.18;3.90;;;7.30;99.90;;;;;;5068809;28;20039;-55
2022/02/09 18:06:47;;;;;;;14.43;4.40;;;7.20;99.90;;;;;;5068731;28;20093;-60
2022/02/09 18:09:20;;;;;;;13.13;4.25;;;7.20;99.90;;;;;;5069277;28;20033;-55
2022/02/09 18:12:01;;;;;;;11.25;4.22;;;7.20;99.90;;;;;;5070944;28;20028;-55
2022/02/09 18:26:44;;;;;;;16.50;4.25;;;7.10;99.90;;;;;;5070883;28;20094;-53
2022/02/09 18:39:09;;;;;;;20.17;5.40;;;7.10;99.90;;;;;;5070678;28;20051;-58
2022/02/09 18:44:17;;;;;;;17.33;6.18;;;7.10;99.90;;;;;;5070346;28;20054;-58
2022/02/09 19:03:02;;;;;;;8.73;3.55;;;7.00;99.90;;;;;;5069792;28;20031;-57
2022/02/09 19:05:43;;;;;;;14.07;5.25;;;7.00;99.90;;;;;;5069800;28;20021;-57
2022/02/09 19:08:18;;;;;;;12.15;4.68;;;7.00;99.90;;;;;;5069069;28;20374;-54
2022/02/09 19:29:58;;;;;;;16.05;6.10;;;6.90;99.90;;;;;;5069336;28;20090;-54
2022/02/09 19:32:44;;;;;;;16.27;5.95;;;6.90;99.90;;;;;;5068750;28;20037;-52
2022/02/09 19:41:58;;;;;;;15.50;5.22;;;6.80;99.90;;;;;;5027017;28;20450;-56
2022/02/09 19:44:55;;;;;;;19.92;5.82;;;6.80;99.90;;;;;;5059855;28;20040;-53
2022/02/09 19:46:59;;;;;;;19.83;6.03;;;6.80;99.90;;;;;;5068720;28;20029;-54
2022/02/09 19:54:43;;;;;;;14.93;6.35;;;6.80;99.90;;;;;;5068619;28;20420;-55
2022/02/09 19:57:12;;;;;;;17.58;7.63;;;6.80;99.90;;;;;;5067563;28;20054;-55
2022/02/09 19:59:40;;;;;;;17.73;6.20;;;6.80;99.90;;;;;;5068252;28;20040;-51
2022/02/09 20:02:07;;;;;;;18.75;6.00;;;6.70;99.90;;;;;;5067437;28;20029;-56
2022/02/09 20:04:34;;;;;;;17.83;6.00;;;6.80;99.90;;;;;;5068657;28;20028;-52
2022/02/09 20:07:00;;;;;;;10.15;4.43;;;6.80;99.90;;;;;;5068059;28;20031;-58
2022/02/09 20:09:26;;;;;;;11.25;5.00;;;6.70;99.90;;;;;;5068742;28;20028;-57
2022/02/09 20:11:52;;;;;;;13.68;4.13;;;6.80;99.90;;;;;;5067930;28;20451;-56
2022/02/09 20:14:19;;;;;;;16.00;5.13;;;6.70;99.90;;;;;;5067910;28;20123;-53
2022/02/09 20:16:45;;;;;;;20.33;5.65;;;6.70;99.90;;;;;;5066109;28;20028;-56
2022/02/09 20:19:12;;;;;;;16.38;5.45;;;6.70;99.90;;;;;;5068642;28;20033;-54
2022/02/09 20:21:38;;;;;;;15.60;6.30;;;6.70;99.90;;;;;;5068593;28;20036;-52
2022/02/09 20:24:07;;;;;;;16.05;3.97;;;6.70;99.90;;;;;;5067850;28;20056;-56
2022/02/09 20:26:33;;;;;;;12.35;4.95;;;6.70;99.90;;;;;;5068301;28;20558;-55
2022/02/09 20:29:04;;;;;;;13.70;4.65;;;6.60;99.90;;;;;;5068340;28;20032;-57
2022/02/09 20:31:35;;;;;;;12.13;4.25;;;6.60;99.90;;;;;;5068057;28;20036;-55
2022/02/09 20:34:19;;;;;;;13.32;4.07;;;6.60;99.90;;;;;;5067784;28;20036;-55
2022/02/09 20:36:48;;;;;;;11.85;3.97;;;6.60;99.90;;;;;;5066279;28;20025;-57
2022/02/09 20:39:18;;;;;;;11.23;3.55;;;6.50;99.90;;;;;;5068375;28;20073;-53
2022/02/09 20:41:45;;;;;;;9.68;3.90;;;6.50;99.90;;;;;;5067276;28;20051;-52
2022/02/09 20:47:06;;;;;;;7.82;4.07;;;6.50;99.90;;;;;;5052551;28;20044;-56
2022/02/09 20:52:00;;;;;;;15.18;4.30;;;6.50;99.90;;;;;;5062524;28;20040;-56
2022/02/09 20:54:25;;;;;;;13.18;4.35;;;6.50;99.90;;;;;;5067295;28;20024;-55
2022/02/09 20:56:51;;;;;;;13.38;4.50;;;6.50;99.90;;;;;;5066082;28;20412;-55
2022/02/09 20:59:18;;;;;;;11.75;4.75;;;6.50;99.90;;;;;;5051914;28;20576;-55
2022/02/09 21:01:54;;;;;;;11.80;4.05;;;6.40;99.90;;;;;;5066802;28;20025;-53
2022/02/09 21:04:23;;;;;;;9.70;4.30;;;6.40;99.90;;;;;;5066989;28;20435;-52
2022/02/09 21:07:00;;;;;;;11.93;4.50;;;6.40;99.90;;;;;;5066287;28;20029;-54
2022/02/09 21:09:51;;;;;;;10.65;5.00;;;6.30;99.90;;;;;;5066945;28;20017;-52
2022/02/09 21:15:33;;;;;;;14.80;5.25;;;6.30;99.90;;;;;;5066351;28;20017;-50
2022/02/09 21:25:50;;;;;;;13.98;5.88;;;6.20;99.90;;;;;;5066861;28;20450;-54
2022/02/09 21:53:10;;;;;;;13.65;6.30;;;5.80;99.90;;;;;;5065286;28;20401;-55
2022/02/09 21:58:20;;;;;;;21.02;8.80;;;5.70;99.90;;;;;;5066188;28;20270;-56
2022/02/09 22:27:24;;;;;;;14.38;6.80;;;5.40;99.90;;;;;;5069546;28;20051;-56
2022/02/09 22:46:46;;;;;;;18.30;8.27;;;5.30;99.90;;;;;;5068737;28;20078;-54
2022/02/09 22:56:43;;;;;;;20.40;6.68;;;5.30;99.90;;;;;;5068643;28;20107;-55
2022/02/09 22:59:17;;;;;;;14.95;6.93;;;5.30;99.90;;;;;;5069845;28;20021;-54
2022/02/09 23:01:51;;;;;;;16.10;6.93;;;5.20;99.90;;;;;;5068338;28;20047;-52
2022/02/09 23:06:52;;;;;;;12.20;6.88;;;5.10;99.90;;;;;;5068006;28;20107;-55
2022/02/09 23:12:08;;;;;;;12.27;6.90;;;5.10;99.90;;;;;;5067930;28;20566;-52
2022/02/09 23:14:55;;;;;;;17.25;6.15;;;5.10;99.90;;;;;;5067455;28;20382;-50
2022/02/09 23:17:59;;;;;;;13.77;6.50;;;5.10;99.90;;;;;;5068884;28;20107;-52
